Parkton, North Carolina
Current Conditions -  °F | °C
As of 6:53 PM on Friday 24 Oct 2014 (Local Time) from KFAY Reporting Station
Clear Clear  
Wind Chill: 62°   Ceiling: Unl
Heat Index: 62°   Visibility: 10mi
Dew Point: 49°   Wind: 3mph
Humidity: 62%   Direction: 320°NW
Pressure: 29.97"   Gusts: NA
Location:  34.9°N, 79.01°W
Report Text: KFAY 242253Z AUTO 32003KT 10SM CLR 17/09 A2997 RMK AO2 SLP144 T01670094
Loading
Personal Weather Stations






























Interactive Weather Map
Tropical Storm Tracking
New forecast layout! Learn more

10-Day Weather Forecast

Advertisements
Track Severe Weather on mobile